Time;durP1;ratioP1;P1;durP2;ratioP2;P2;SDS_P1;SDS_P2;PMS_P1;PMS_P2;Temp;Humidity;BMP_temperature;BMP_pressure;BME280_temperature;BME280_humidity;BME280_pressure;Samples;Min_cycle;Max_cycle;Signal;HPM_P1;HPM_P2
2022/04/10 00:00:56;;;;;;;4.40;2.53;;;;;;;;;;5075012;28;20207;-51
2022/04/10 00:03:32;;;;;;;3.30;2.70;;;;;;;;;;5066966;28;20355;-55
2022/04/10 00:05:59;;;;;;;3.43;2.53;;;;;;;;;;5069638;28;20183;-53
2022/04/10 00:08:25;;;;;;;3.53;2.50;;;;;;;;;;5081487;28;20195;-52
2022/04/10 00:10:51;;;;;;;3.53;2.60;;;;;;;;;;5074899;28;20181;-52
2022/04/10 00:13:17;;;;;;;4.23;2.60;;;;;;;;;;5076224;28;20714;-52
2022/04/10 00:15:43;;;;;;;4.23;2.60;;;;;;;;;;5070609;28;20539;-52
2022/04/10 00:18:09;;;;;;;5.13;2.63;;;;;;;;;;5086610;28;20194;-52
2022/04/10 00:20:36;;;;;;;2.93;2.30;;;;;;;;;;5079485;28;20176;-52
2022/04/10 00:23:04;;;;;;;5.40;2.87;;;;;;;;;;5075522;28;20238;-51
2022/04/10 00:25:30;;;;;;;3.23;2.43;;;;;;;;;;5076708;28;20228;-51
2022/04/10 00:27:56;;;;;;;4.30;2.53;;;;;;;;;;5085178;28;20179;-51
2022/04/10 00:30:23;;;;;;;3.67;2.57;;;;;;;;;;5073201;28;20215;-51
2022/04/10 00:32:49;;;;;;;3.43;2.70;;;;;;;;;;5075380;28;20184;-53
2022/04/10 00:35:15;;;;;;;3.47;2.30;;;;;;;;;;5079314;28;20416;-52
2022/04/10 00:37:41;;;;;;;2.53;2.23;;;;;;;;;;5086208;28;20186;-53
2022/04/10 00:40:08;;;;;;;3.57;2.47;;;;;;;;;;5080284;28;20240;-52
2022/04/10 00:42:43;;;;;;;4.57;2.73;;;;;;;;;;5072165;28;20214;-53
2022/04/10 00:45:09;;;;;;;4.67;3.00;;;;;;;;;;5080974;28;20523;-53
2022/04/10 00:47:36;;;;;;;2.23;2.03;;;;;;;;;;5083127;28;20168;-52
2022/04/10 00:50:03;;;;;;;3.30;2.53;;;;;;;;;;5081792;28;20704;-52
2022/04/10 00:52:30;;;;;;;4.07;2.90;;;;;;;;;;5066939;28;20220;-53
2022/04/10 00:54:56;;;;;;;2.70;2.50;;;;;;;;;;5083413;28;20203;-52
2022/04/10 00:57:23;;;;;;;3.77;2.77;;;;;;;;;;5075837;28;20228;-52
2022/04/10 00:59:50;;;;;;;3.63;2.87;;;;;;;;;;5077208;28;20185;-53
2022/04/10 01:02:16;;;;;;;4.07;2.40;;;;;;;;;;5077878;28;20216;-53
2022/04/10 01:04:42;;;;;;;4.43;2.63;;;;;;;;;;5077613;28;20542;-52
2022/04/10 01:07:11;;;;;;;2.80;2.60;;;;;;;;;;5072238;28;20246;-52
2022/04/10 01:09:38;;;;;;;4.00;3.07;;;;;;;;;;5070790;28;20184;-51
2022/04/10 01:12:04;;;;;;;4.47;2.70;;;;;;;;;;5075640;28;20288;-54
2022/04/10 01:14:30;;;;;;;2.90;2.60;;;;;;;;;;5078391;28;20241;-52
2022/04/10 01:16:57;;;;;;;4.13;2.83;;;;;;;;;;5072602;28;20191;-52
2022/04/10 01:19:23;;;;;;;5.37;3.00;;;;;;;;;;5071691;28;20185;-54
2022/04/10 01:21:51;;;;;;;4.00;3.13;;;;;;;;;;5073961;28;20717;-53
2022/04/10 01:24:18;;;;;;;4.80;3.00;;;;;;;;;;5074881;28;20249;-52
2022/04/10 01:26:45;;;;;;;4.30;3.03;;;;;;;;;;5080382;28;20691;-53
2022/04/10 01:29:15;;;;;;;5.37;2.43;;;;;;;;;;5067017;28;20192;-52
2022/04/10 01:31:43;;;;;;;4.03;3.00;;;;;;;;;;5070325;28;20181;-52
2022/04/10 01:34:10;;;;;;;4.23;2.80;;;;;;;;;;5075325;28;20231;-51
2022/04/10 01:36:37;;;;;;;4.77;2.87;;;;;;;;;;5081936;28;20171;-52
2022/04/10 01:39:08;;;;;;;3.40;2.60;;;;;;;;;;5076397;28;20176;-53
2022/04/10 01:41:35;;;;;;;5.00;3.00;;;;;;;;;;5075140;28;20235;-53
2022/04/10 01:44:02;;;;;;;4.27;3.50;;;;;;;;;;5079465;28;20651;-52
2022/04/10 01:46:29;;;;;;;10.27;2.90;;;;;;;;;;5071485;28;20806;-52
2022/04/10 01:48:55;;;;;;;3.83;2.80;;;;;;;;;;5073754;28;20190;-51
2022/04/10 01:51:23;;;;;;;4.27;2.60;;;;;;;;;;5065349;28;20583;-52
2022/04/10 01:53:49;;;;;;;5.70;3.20;;;;;;;;;;5068643;28;20180;-52
2022/04/10 01:56:15;;;;;;;4.47;2.87;;;;;;;;;;5070637;28;20678;-53
2022/04/10 01:58:43;;;;;;;3.37;2.60;;;;;;;;;;5078488;28;20208;-53
2022/04/10 02:01:10;;;;;;;4.47;2.50;;;;;;;;;;5073922;28;20179;-52
2022/04/10 02:03:36;;;;;;;4.63;2.97;;;;;;;;;;5074308;28;20211;-53
2022/04/10 02:06:03;;;;;;;5.63;2.43;;;;;;;;;;5074437;28;20172;-51
2022/04/10 02:08:29;;;;;;;3.53;3.10;;;;;;;;;;5075104;28;20185;-54
2022/04/10 02:10:56;;;;;;;5.03;2.60;;;;;;;;;;5072370;28;20604;-52
2022/04/10 02:13:22;;;;;;;3.70;2.43;;;;;;;;;;5075683;28;20675;-53
2022/04/10 02:15:48;;;;;;;2.60;2.37;;;;;;;;;;5069895;28;20179;-53
2022/04/10 02:18:14;;;;;;;3.80;2.87;;;;;;;;;;5071950;28;20180;-52
2022/04/10 02:20:40;;;;;;;4.47;3.17;;;;;;;;;;5071350;28;20682;-53
2022/04/10 02:23:06;;;;;;;3.73;2.73;;;;;;;;;;5083246;28;20570;-53
2022/04/10 02:25:33;;;;;;;3.40;2.70;;;;;;;;;;5072363;28;20199;-53
2022/04/10 02:27:59;;;;;;;3.70;2.90;;;;;;;;;;5080079;28;20176;-52
2022/04/10 02:30:25;;;;;;;4.33;2.67;;;;;;;;;;5073949;28;20652;-52
2022/04/10 02:32:51;;;;;;;2.93;2.67;;;;;;;;;;5066078;28;20192;-53
2022/04/10 02:35:17;;;;;;;2.50;2.03;;;;;;;;;;5071806;28;20180;-53
2022/04/10 02:37:46;;;;;;;4.27;2.40;;;;;;;;;;5075607;28;20190;-52
2022/04/10 02:40:14;;;;;;;3.43;2.50;;;;;;;;;;5082122;28;20180;-51
2022/04/10 02:42:40;;;;;;;5.87;3.17;;;;;;;;;;5081882;28;20203;-53
2022/04/10 02:45:07;;;;;;;3.53;2.43;;;;;;;;;;5079358;28;20271;-54
2022/04/10 02:47:33;;;;;;;6.07;2.80;;;;;;;;;;5069852;28;20199;-52
2022/04/10 02:49:59;;;;;;;3.27;2.87;;;;;;;;;;5080025;28;20267;-52
2022/04/10 02:52:25;;;;;;;3.23;2.70;;;;;;;;;;5084580;28;20589;-52
2022/04/10 02:54:51;;;;;;;5.17;3.40;;;;;;;;;;5079388;28;20207;-52
2022/04/10 02:57:17;;;;;;;3.20;2.60;;;;;;;;;;5085913;28;20200;-53
2022/04/10 02:59:43;;;;;;;3.10;2.80;;;;;;;;;;5071335;28;20246;-52
2022/04/10 03:02:09;;;;;;;4.40;3.10;;;;;;;;;;5074852;28;20653;-52
2022/04/10 03:04:35;;;;;;;2.70;2.50;;;;;;;;;;5061940;28;20634;-52
2022/04/10 03:07:01;;;;;;;4.73;2.77;;;;;;;;;;5079807;28;20231;-53
2022/04/10 03:09:28;;;;;;;4.40;2.80;;;;;;;;;;5083887;28;20180;-52
2022/04/10 03:11:54;;;;;;;3.10;2.80;;;;;;;;;;5080615;28;20302;-52
2022/04/10 03:14:20;;;;;;;4.13;3.00;;;;;;;;;;5080555;28;20717;-52
2022/04/10 03:16:46;;;;;;;8.33;7.73;;;;;;;;;;5073343;28;20275;-52
2022/04/10 03:19:12;;;;;;;4.47;3.37;;;;;;;;;;5080280;28;20271;-53
2022/04/10 03:21:38;;;;;;;3.47;2.73;;;;;;;;;;5083291;28;20214;-52
2022/04/10 03:24:04;;;;;;;3.97;2.90;;;;;;;;;;5087172;28;20188;-52
2022/04/10 03:26:31;;;;;;;3.10;2.43;;;;;;;;;;5081225;28;20188;-52
2022/04/10 03:28:57;;;;;;;3.23;2.93;;;;;;;;;;5082349;28;20184;-53
2022/04/10 03:31:23;;;;;;;4.67;2.63;;;;;;;;;;5074689;28;20180;-52
2022/04/10 03:33:52;;;;;;;5.17;3.23;;;;;;;;;;5075427;28;20180;-52
2022/04/10 03:36:18;;;;;;;4.60;2.87;;;;;;;;;;5072263;28;20220;-53
2022/04/10 03:38:44;;;;;;;3.30;2.93;;;;;;;;;;5088381;28;20172;-52
2022/04/10 03:41:11;;;;;;;4.13;3.67;;;;;;;;;;5079393;28;20316;-52
2022/04/10 03:43:37;;;;;;;3.77;2.67;;;;;;;;;;5087670;28;20214;-51
2022/04/10 03:46:03;;;;;;;4.00;2.90;;;;;;;;;;5079027;28;20176;-53
2022/04/10 03:48:29;;;;;;;3.67;2.80;;;;;;;;;;5076623;28;20180;-52
2022/04/10 03:50:55;;;;;;;4.67;2.70;;;;;;;;;;5080030;28;20220;-52
2022/04/10 03:53:21;;;;;;;3.83;2.83;;;;;;;;;;5077948;28;20184;-51
2022/04/10 03:55:47;;;;;;;3.77;3.00;;;;;;;;;;5077613;28;20691;-52
2022/04/10 03:58:14;;;;;;;3.73;2.57;;;;;;;;;;5080521;28;20200;-53
2022/04/10 04:00:40;;;;;;;3.87;2.47;;;;;;;;;;5071778;28;20595;-52
2022/04/10 04:03:06;;;;;;;3.83;3.33;;;;;;;;;;5072717;28;20204;-52
2022/04/10 04:05:32;;;;;;;4.90;2.77;;;;;;;;;;5074222;28;20274;-52
2022/04/10 04:07:58;;;;;;;3.63;2.97;;;;;;;;;;5068372;28;20180;-53
2022/04/10 04:10:24;;;;;;;4.47;3.20;;;;;;;;;;5069550;28;20179;-53
2022/04/10 04:12:50;;;;;;;3.67;3.37;;;;;;;;;;5071318;28;20446;-52
2022/04/10 04:15:16;;;;;;;3.70;2.67;;;;;;;;;;5071170;28;20177;-52
2022/04/10 04:17:42;;;;;;;4.70;2.97;;;;;;;;;;5064568;28;20592;-54
2022/04/10 04:20:09;;;;;;;4.50;3.03;;;;;;;;;;5078775;28;20188;-53
2022/04/10 04:22:35;;;;;;;4.53;2.67;;;;;;;;;;5067384;28;20232;-53
2022/04/10 04:25:02;;;;;;;2.97;2.77;;;;;;;;;;5059399;28;20184;-52
2022/04/10 04:27:28;;;;;;;3.40;2.87;;;;;;;;;;5077418;28;20238;-54
2022/04/10 04:29:54;;;;;;;3.27;2.77;;;;;;;;;;5066497;28;20180;-53
2022/04/10 04:32:20;;;;;;;4.87;3.20;;;;;;;;;;5061055;28;20623;-52
2022/04/10 04:34:49;;;;;;;5.97;3.47;;;;;;;;;;5071987;28;20627;-52
2022/04/10 04:37:15;;;;;;;4.87;4.40;;;;;;;;;;5079794;28;20218;-52
2022/04/10 04:39:41;;;;;;;4.10;3.30;;;;;;;;;;5056790;28;20192;-52
2022/04/10 04:42:07;;;;;;;7.07;3.07;;;;;;;;;;5076625;28;20196;-51
2022/04/10 04:44:33;;;;;;;3.03;2.60;;;;;;;;;;5076579;28;20180;-53
2022/04/10 04:47:00;;;;;;;3.73;2.60;;;;;;;;;;5087798;28;20210;-52
2022/04/10 04:49:26;;;;;;;3.77;2.67;;;;;;;;;;5069940;28;20236;-52
2022/04/10 04:51:52;;;;;;;3.73;2.80;;;;;;;;;;5075410;28;20180;-52
2022/04/10 04:54:18;;;;;;;4.53;3.23;;;;;;;;;;5071551;28;20221;-54
2022/04/10 04:56:44;;;;;;;3.13;2.77;;;;;;;;;;5081058;28;20212;-52
2022/04/10 04:59:12;;;;;;;5.17;3.10;;;;;;;;;;5057465;28;20176;-52
2022/04/10 05:01:41;;;;;;;2.43;2.23;;;;;;;;;;5071454;28;20347;-53
2022/04/10 05:04:07;;;;;;;3.53;3.20;;;;;;;;;;5072348;28;20251;-52
2022/04/10 05:06:33;;;;;;;4.80;3.10;;;;;;;;;;5075523;28;20542;-52
2022/04/10 05:08:59;;;;;;;3.73;3.03;;;;;;;;;;5071410;28;20177;-53
2022/04/10 05:11:25;;;;;;;3.87;2.53;;;;;;;;;;5067661;28;20177;-53
2022/04/10 05:13:51;;;;;;;4.97;3.13;;;;;;;;;;5037849;28;20187;-52
2022/04/10 05:16:17;;;;;;;3.13;2.83;;;;;;;;;;5062118;28;20259;-52
2022/04/10 05:18:43;;;;;;;3.83;2.90;;;;;;;;;;5060156;28;20229;-53
2022/04/10 05:21:09;;;;;;;4.03;3.37;;;;;;;;;;5068981;28;21080;-52
2022/04/10 05:23:35;;;;;;;3.90;3.03;;;;;;;;;;5078306;28;20273;-53
2022/04/10 05:26:02;;;;;;;3.60;2.87;;;;;;;;;;5070387;28;20172;-52
2022/04/10 05:28:28;;;;;;;3.27;2.97;;;;;;;;;;5068460;28;20184;-53
2022/04/10 05:30:54;;;;;;;5.27;3.10;;;;;;;;;;5064012;28;20586;-54
2022/04/10 05:33:20;;;;;;;4.60;3.53;;;;;;;;;;5058862;28;20302;-52
2022/04/10 05:35:50;;;;;;;6.67;3.97;;;;;;;;;;5061267;28;20190;-52
2022/04/10 05:38:16;;;;;;;6.57;4.10;;;;;;;;;;5075881;28;20233;-52
2022/04/10 05:40:42;;;;;;;6.70;4.00;;;;;;;;;;5067646;28;20179;-52
2022/04/10 05:43:08;;;;;;;5.97;3.63;;;;;;;;;;5068158;28;20203;-52
2022/04/10 05:45:34;;;;;;;10.30;4.30;;;;;;;;;;5078729;28;20194;-52
2022/04/10 05:48:00;;;;;;;10.03;4.50;;;;;;;;;;5080087;28;20410;-53
2022/04/10 05:50:26;;;;;;;5.27;3.23;;;;;;;;;;5076443;28;20179;-52
2022/04/10 05:52:52;;;;;;;5.40;4.20;;;;;;;;;;5069696;28;20636;-52
2022/04/10 05:55:18;;;;;;;4.03;2.97;;;;;;;;;;5072601;28;20194;-52
2022/04/10 05:57:44;;;;;;;7.17;3.57;;;;;;;;;;5076846;28;20203;-53
2022/04/10 06:00:15;;;;;;;5.90;3.10;;;;;;;;;;5075460;28;20203;-52
2022/04/10 06:02:41;;;;;;;8.67;4.40;;;;;;;;;;5078359;28;20244;-53
2022/04/10 06:05:07;;;;;;;6.70;4.00;;;;;;;;;;5073056;28;20180;-53
2022/04/10 06:07:34;;;;;;;5.40;3.97;;;;;;;;;;5077926;28;20180;-52
2022/04/10 06:10:00;;;;;;;5.87;4.03;;;;;;;;;;5079077;28;20276;-54
2022/04/10 06:12:26;;;;;;;4.90;3.77;;;;;;;;;;5075745;28;20242;-54
2022/04/10 06:14:52;;;;;;;5.07;4.23;;;;;;;;;;5075439;28;20190;-53
2022/04/10 06:17:19;;;;;;;5.40;4.13;;;;;;;;;;5065862;28;20184;-52
2022/04/10 06:19:45;;;;;;;6.13;3.80;;;;;;;;;;5077588;28;20675;-53
2022/04/10 06:22:11;;;;;;;7.33;3.90;;;;;;;;;;5051246;28;20516;-53
2022/04/10 06:24:37;;;;;;;9.50;4.50;;;;;;;;;;5087585;28;20223;-53
2022/04/10 06:27:04;;;;;;;4.37;3.50;;;;;;;;;;5068535;28;20212;-53
2022/04/10 06:29:30;;;;;;;5.47;3.80;;;;;;;;;;5074749;28;20302;-53
2022/04/10 06:31:56;;;;;;;6.33;3.70;;;;;;;;;;5071766;28;20749;-52
2022/04/10 06:34:22;;;;;;;5.47;3.90;;;;;;;;;;5071020;28;20181;-53
2022/04/10 06:36:48;;;;;;;4.60;3.97;;;;;;;;;;5072241;28;20176;-52
2022/04/10 06:39:15;;;;;;;7.77;4.43;;;;;;;;;;5072651;28;20241;-52
2022/04/10 06:41:42;;;;;;;4.97;3.63;;;;;;;;;;5071688;28;20192;-53
2022/04/10 06:44:08;;;;;;;6.57;3.67;;;;;;;;;;5052960;28;20517;-53
2022/04/10 06:46:34;;;;;;;4.80;3.40;;;;;;;;;;5071993;28;20579;-52
2022/04/10 06:49:01;;;;;;;5.60;4.13;;;;;;;;;;5070580;28;20184;-54
2022/04/10 06:51:27;;;;;;;5.63;3.80;;;;;;;;;;5077005;28;20185;-52
2022/04/10 06:53:53;;;;;;;6.83;3.87;;;;;;;;;;5051377;28;20628;-54
2022/04/10 06:56:19;;;;;;;7.77;4.20;;;;;;;;;;5085029;28;20186;-53
2022/04/10 06:58:45;;;;;;;5.77;4.00;;;;;;;;;;5061045;28;20626;-54
2022/04/10 07:01:11;;;;;;;6.73;3.93;;;;;;;;;;5071053;28;20190;-53
2022/04/10 07:03:37;;;;;;;5.93;4.30;;;;;;;;;;5070766;28;20249;-53
2022/04/10 07:06:03;;;;;;;4.77;3.90;;;;;;;;;;5073987;28;20180;-53
2022/04/10 07:08:29;;;;;;;6.03;3.83;;;;;;;;;;5075810;28;20181;-51
2022/04/10 07:10:55;;;;;;;10.17;4.33;;;;;;;;;;5067264;28;20195;-53
2022/04/10 07:13:22;;;;;;;4.70;3.87;;;;;;;;;;5086755;28;20227;-52
2022/04/10 07:15:52;;;;;;;6.13;4.77;;;;;;;;;;5079325;28;20550;-54
2022/04/10 07:18:18;;;;;;;5.53;4.20;;;;;;;;;;5065991;28;20616;-53
2022/04/10 07:20:45;;;;;;;4.83;3.67;;;;;;;;;;5055612;28;20538;-53
2022/04/10 07:25:55;;;;;;;6.73;3.50;;;;;;;;;;5058234;28;20227;-53
2022/04/10 07:28:24;;;;;;;5.60;4.03;;;;;;;;;;5077922;28;20212;-54
2022/04/10 07:30:51;;;;;;;5.90;4.03;;;;;;;;;;5053007;28;20191;-53
2022/04/10 07:33:17;;;;;;;4.37;3.60;;;;;;;;;;5078931;28;20185;-54
2022/04/10 07:35:43;;;;;;;4.70;3.70;;;;;;;;;;5078336;28;20183;-53
2022/04/10 07:38:10;;;;;;;4.77;4.23;;;;;;;;;;5081330;28;20262;-52
2022/04/10 07:40:38;;;;;;;6.77;4.30;;;;;;;;;;5076826;28;20184;-53
2022/04/10 07:43:04;;;;;;;5.50;4.00;;;;;;;;;;5077574;28;20673;-53
2022/04/10 07:48:16;;;;;;;4.60;3.70;;;;;;;;;;5085984;28;20548;-52
2022/04/10 07:50:42;;;;;;;4.70;3.40;;;;;;;;;;5071063;28;20233;-54
2022/04/10 07:53:08;;;;;;;8.60;4.23;;;;;;;;;;5066582;28;20541;-52
2022/04/10 07:55:34;;;;;;;3.70;3.40;;;;;;;;;;5070664;28;20214;-52
2022/04/10 07:58:00;;;;;;;7.50;3.83;;;;;;;;;;5079142;28;20548;-51
2022/04/10 08:00:32;;;;;;;3.80;3.20;;;;;;;;;;5048688;28;20211;-53
2022/04/10 08:02:58;;;;;;;6.13;3.87;;;;;;;;;;5048939;28;20216;-52
2022/04/10 08:05:24;;;;;;;4.20;3.07;;;;;;;;;;5068313;28;20174;-53
2022/04/10 08:07:50;;;;;;;5.53;3.27;;;;;;;;;;5054333;28;20551;-53
2022/04/10 08:10:16;;;;;;;3.73;2.70;;;;;;;;;;5052323;28;20185;-53
2022/04/10 08:12:43;;;;;;;5.93;2.87;;;;;;;;;;5069381;28;20315;-53
2022/04/10 08:15:10;;;;;;;5.30;3.53;;;;;;;;;;5075190;28;20555;-53
2022/04/10 08:17:36;;;;;;;8.63;3.40;;;;;;;;;;5058507;28;20551;-52
2022/04/10 08:20:04;;;;;;;4.93;3.37;;;;;;;;;;5052988;28;20242;-53
2022/04/10 08:22:30;;;;;;;4.23;2.97;;;;;;;;;;5073104;28;20686;-52
2022/04/10 08:25:00;;;;;;;4.27;3.10;;;;;;;;;;5079106;28;20208;-52
2022/04/10 08:27:27;;;;;;;4.73;2.87;;;;;;;;;;5080115;28;20192;-52
2022/04/10 08:29:53;;;;;;;5.13;2.87;;;;;;;;;;5075527;28;20180;-52
2022/04/10 08:32:19;;;;;;;4.60;2.90;;;;;;;;;;5079574;28;20187;-53
2022/04/10 08:34:45;;;;;;;3.77;2.97;;;;;;;;;;5074489;28;20182;-52
2022/04/10 08:37:12;;;;;;;7.47;3.10;;;;;;;;;;5075858;28;20188;-55
2022/04/10 08:39:38;;;;;;;7.30;2.90;;;;;;;;;;5062687;28;20545;-54
2022/04/10 08:42:05;;;;;;;3.40;2.63;;;;;;;;;;5081667;28;20268;-55
2022/04/10 08:44:31;;;;;;;4.37;3.03;;;;;;;;;;5060181;28;20279;-54
2022/04/10 08:47:00;;;;;;;6.60;2.80;;;;;;;;;;5083333;28;20759;-53
2022/04/10 08:49:31;;;;;;;6.17;2.60;;;;;;;;;;5079984;28;20192;-52
2022/04/10 08:51:58;;;;;;;3.60;2.50;;;;;;;;;;5076304;28;20188;-52
2022/04/10 08:54:25;;;;;;;5.00;2.60;;;;;;;;;;5083786;28;20188;-52
2022/04/10 08:56:51;;;;;;;7.00;3.40;;;;;;;;;;5078218;28;20251;-54
2022/04/10 08:59:17;;;;;;;6.73;2.90;;;;;;;;;;5074567;28;20191;-55
2022/04/10 09:01:44;;;;;;;3.53;2.47;;;;;;;;;;5077953;28;20180;-53
2022/04/10 09:04:10;;;;;;;3.47;2.40;;;;;;;;;;5035908;28;20352;-53
2022/04/10 09:06:43;;;;;;;4.40;2.50;;;;;;;;;;5059283;28;20180;-54
2022/04/10 09:09:18;;;;;;;2.63;2.17;;;;;;;;;;5066970;28;20686;-53
2022/04/10 09:11:45;;;;;;;4.40;2.23;;;;;;;;;;5071515;28;20695;-53
2022/04/10 09:14:11;;;;;;;7.07;2.30;;;;;;;;;;5076474;28;20712;-52
2022/04/10 09:16:37;;;;;;;5.20;2.87;;;;;;;;;;5058207;28;20173;-52
2022/04/10 09:19:10;;;;;;;3.23;2.60;;;;;;;;;;5080276;28;20283;-54
2022/04/10 09:21:41;;;;;;;5.37;2.33;;;;;;;;;;5049728;28;20712;-52
2022/04/10 09:24:08;;;;;;;4.90;2.50;;;;;;;;;;5075929;28;20176;-55
2022/04/10 09:26:50;;;;;;;5.93;2.63;;;;;;;;;;5071258;28;20202;-54
2022/04/10 09:29:18;;;;;;;4.13;2.10;;;;;;;;;;5069787;28;20218;-54
2022/04/10 09:31:47;;;;;;;4.47;3.00;;;;;;;;;;5063853;28;20321;-55
2022/04/10 09:34:17;;;;;;;3.47;2.27;;;;;;;;;;5068434;28;20236;-53
2022/04/10 09:36:45;;;;;;;3.47;2.73;;;;;;;;;;5084915;28;20232;-55
2022/04/10 09:39:15;;;;;;;5.93;2.57;;;;;;;;;;5072753;28;20183;-53
2022/04/10 09:41:43;;;;;;;5.90;2.77;;;;;;;;;;5065653;28;20188;-54
2022/04/10 09:44:22;;;;;;;4.50;2.80;;;;;;;;;;5048648;28;20188;-55
2022/04/10 09:47:08;;;;;;;3.40;2.63;;;;;;;;;;5076961;28;20179;-55
2022/04/10 09:49:41;;;;;;;3.37;2.50;;;;;;;;;;5059462;28;20229;-53
2022/04/10 09:52:09;;;;;;;6.10;3.30;;;;;;;;;;5065597;28;20733;-52
2022/04/10 09:54:36;;;;;;;4.20;2.27;;;;;;;;;;5076817;28;20195;-52
2022/04/10 09:57:04;;;;;;;5.30;2.10;;;;;;;;;;5078478;28;20453;-53
2022/04/10 09:59:35;;;;;;;3.27;1.90;;;;;;;;;;5055258;28;20590;-54
2022/04/10 10:02:03;;;;;;;6.97;2.43;;;;;;;;;;5066581;28;20223;-53
2022/04/10 10:04:30;;;;;;;4.80;2.30;;;;;;;;;;5075149;28;20185;-53
2022/04/10 10:06:57;;;;;;;3.53;1.80;;;;;;;;;;5072560;28;20179;-55
2022/04/10 10:09:23;;;;;;;2.83;1.90;;;;;;;;;;5071743;28;20307;-53
2022/04/10 10:11:49;;;;;;;3.30;1.90;;;;;;;;;;5080233;28;20363;-54
2022/04/10 10:14:16;;;;;;;5.37;2.20;;;;;;;;;;5079852;28;20624;-53
2022/04/10 10:16:43;;;;;;;4.83;2.27;;;;;;;;;;5061619;28;20191;-53
2022/04/10 10:19:09;;;;;;;2.10;1.63;;;;;;;;;;5083567;28;20311;-55
2022/04/10 10:21:36;;;;;;;3.17;1.90;;;;;;;;;;5074361;28;20200;-54
2022/04/10 10:24:03;;;;;;;7.87;2.20;;;;;;;;;;5079370;28;20175;-55
2022/04/10 10:26:45;;;;;;;4.70;2.10;;;;;;;;;;5080030;28;20266;-56
2022/04/10 10:29:24;;;;;;;2.47;2.00;;;;;;;;;;5076405;28;20519;-54
2022/04/10 10:32:03;;;;;;;6.00;2.40;;;;;;;;;;5075028;28;20234;-54
2022/04/10 10:34:30;;;;;;;2.17;1.80;;;;;;;;;;5063938;28;20605;-53
2022/04/10 10:36:57;;;;;;;5.07;1.80;;;;;;;;;;5052127;28;20185;-53
2022/04/10 10:39:23;;;;;;;5.80;1.80;;;;;;;;;;5067788;28;20223;-54
2022/04/10 10:41:51;;;;;;;2.33;1.67;;;;;;;;;;5068865;28;20199;-53
2022/04/10 10:44:38;;;;;;;3.37;1.67;;;;;;;;;;5075384;28;20703;-52
2022/04/10 10:47:05;;;;;;;4.60;2.00;;;;;;;;;;5074164;28;20227;-52
2022/04/10 10:49:32;;;;;;;4.20;1.70;;;;;;;;;;5063601;28;20180;-54
2022/04/10 10:51:58;;;;;;;6.00;2.17;;;;;;;;;;5066265;28;20190;-52
2022/04/10 10:54:28;;;;;;;2.73;1.37;;;;;;;;;;5057986;28;20191;-53
2022/04/10 10:56:54;;;;;;;3.27;1.40;;;;;;;;;;5077487;28;20204;-52
2022/04/10 10:59:30;;;;;;;2.30;1.80;;;;;;;;;;5070279;28;20204;-54
2022/04/10 11:02:07;;;;;;;5.53;1.80;;;;;;;;;;5077775;28;20199;-56
2022/04/10 11:04:42;;;;;;;2.40;1.30;;;;;;;;;;5068108;28;20168;-55
2022/04/10 11:07:20;;;;;;;3.43;1.40;;;;;;;;;;5049885;28;20172;-55
2022/04/10 11:09:48;;;;;;;1.93;1.30;;;;;;;;;;5071291;28;20212;-53
2022/04/10 11:12:14;;;;;;;2.73;1.50;;;;;;;;;;5069969;28;20267;-52
2022/04/10 11:14:41;;;;;;;4.60;1.50;;;;;;;;;;5072625;28;20193;-52
2022/04/10 11:17:08;;;;;;;2.43;1.47;;;;;;;;;;5077852;28;20543;-52
2022/04/10 11:19:35;;;;;;;6.60;1.50;;;;;;;;;;5085916;28;20184;-52
2022/04/10 11:22:01;;;;;;;4.10;1.40;;;;;;;;;;5054810;28;20301;-52
2022/04/10 11:24:27;;;;;;;2.80;1.60;;;;;;;;;;5086502;28;20189;-55
2022/04/10 11:26:53;;;;;;;3.37;1.40;;;;;;;;;;5070487;28;20595;-51
2022/04/10 11:29:26;;;;;;;3.67;1.53;;;;;;;;;;5078760;28;20378;-52
2022/04/10 11:31:55;;;;;;;2.47;1.60;;;;;;;;;;5080728;28;20187;-54
2022/04/10 11:34:28;;;;;;;3.00;1.43;;;;;;;;;;5059755;28;20185;-53
2022/04/10 11:36:59;;;;;;;1.77;1.30;;;;;;;;;;5079151;28;20187;-53
2022/04/10 11:39:25;;;;;;;3.07;1.37;;;;;;;;;;5085476;28;20183;-53
2022/04/10 11:41:53;;;;;;;2.63;1.47;;;;;;;;;;5075035;28;20189;-53
2022/04/10 11:44:19;;;;;;;2.57;1.67;;;;;;;;;;5084091;28;20182;-53
2022/04/10 11:46:46;;;;;;;1.93;1.50;;;;;;;;;;5075510;28;20176;-54
2022/04/10 11:49:13;;;;;;;3.03;1.37;;;;;;;;;;5052733;28;20180;-52
2022/04/10 11:51:52;;;;;;;1.43;1.13;;;;;;;;;;5069635;28;20408;-53
2022/04/10 11:54:31;;;;;;;2.70;1.50;;;;;;;;;;5056748;28;20176;-53
2022/04/10 11:56:58;;;;;;;5.50;1.40;;;;;;;;;;5061091;28;20184;-53
2022/04/10 11:59:25;;;;;;;1.33;1.23;;;;;;;;;;5055439;28;20236;-52
2022/04/10 12:01:51;;;;;;;1.80;1.37;;;;;;;;;;5080067;28;20432;-53
2022/04/10 12:04:19;;;;;;;4.30;2.20;;;;;;;;;;5078080;28;20191;-54
2022/04/10 12:06:46;;;;;;;8.37;1.40;;;;;;;;;;5057761;28;20618;-52
2022/04/10 12:09:12;;;;;;;3.03;1.27;;;;;;;;;;5082726;28;20654;-52
2022/04/10 12:11:39;;;;;;;2.30;1.43;;;;;;;;;;5056934;28;20219;-52
2022/04/10 12:14:21;;;;;;;2.67;1.87;;;;;;;;;;5039836;28;20601;-54
2022/04/10 12:16:48;;;;;;;3.73;1.50;;;;;;;;;;5076493;28;20595;-55
2022/04/10 12:19:14;;;;;;;2.60;1.37;;;;;;;;;;5066200;28;20187;-51
2022/04/10 12:21:48;;;;;;;1.70;1.30;;;;;;;;;;5078028;28;20262;-54
2022/04/10 12:24:19;;;;;;;2.17;1.20;;;;;;;;;;5063069;28;20765;-52
2022/04/10 12:26:45;;;;;;;1.80;1.33;;;;;;;;;;5078549;28;20172;-52
2022/04/10 12:29:11;;;;;;;3.17;1.37;;;;;;;;;;5078499;28;20188;-56
2022/04/10 12:31:41;;;;;;;2.87;1.30;;;;;;;;;;5073071;28;21316;-53
2022/04/10 12:34:09;;;;;;;2.60;1.10;;;;;;;;;;5053585;28;20173;-54
2022/04/10 12:36:44;;;;;;;1.67;1.30;;;;;;;;;;5071929;28;20176;-53
2022/04/10 12:39:11;;;;;;;3.43;1.43;;;;;;;;;;5052215;28;20184;-53
2022/04/10 12:41:45;;;;;;;1.53;1.10;;;;;;;;;;5048101;28;20187;-54
2022/04/10 12:44:12;;;;;;;1.13;1.13;;;;;;;;;;5050039;28;20278;-56
2022/04/10 12:46:41;;;;;;;1.97;1.10;;;;;;;;;;5049263;28;20216;-54
2022/04/10 12:49:14;;;;;;;1.47;1.20;;;;;;;;;;5064731;28;20237;-53
2022/04/10 12:51:47;;;;;;;2.07;1.40;;;;;;;;;;5052869;28;20180;-54
2022/04/10 12:54:14;;;;;;;1.30;1.20;;;;;;;;;;5050495;28;20197;-54
2022/04/10 12:56:43;;;;;;;1.37;1.27;;;;;;;;;;5073144;28;20188;-54
2022/04/10 12:59:09;;;;;;;1.80;1.40;;;;;;;;;;5068034;28;20184;-51
2022/04/10 13:01:35;;;;;;;3.27;1.47;;;;;;;;;;5071448;28;20177;-52
2022/04/10 13:04:02;;;;;;;2.87;1.50;;;;;;;;;;5054068;28;20208;-52
2022/04/10 13:06:48;;;;;;;1.97;1.70;;;;;;;;;;5065861;28;20570;-54
2022/04/10 13:09:18;;;;;;;1.97;1.47;;;;;;;;;;5060171;28;20172;-52
2022/04/10 13:11:44;;;;;;;1.47;1.37;;;;;;;;;;5048864;28;20696;-53
2022/04/10 13:14:11;;;;;;;1.53;1.37;;;;;;;;;;5069930;28;20411;-52
2022/04/10 13:16:38;;;;;;;1.30;1.20;;;;;;;;;;5055015;28;20552;-52
2022/04/10 13:19:05;;;;;;;1.20;1.10;;;;;;;;;;5057482;28;20176;-52
2022/04/10 13:21:34;;;;;;;1.70;1.17;;;;;;;;;;5069657;28;20180;-55
2022/04/10 13:24:01;;;;;;;2.23;1.40;;;;;;;;;;5072159;28;20206;-53
2022/04/10 13:26:31;;;;;;;3.17;1.63;;;;;;;;;;5080274;28;20199;-56
2022/04/10 13:28:59;;;;;;;1.60;1.50;;;;;;;;;;5054211;28;20184;-53
2022/04/10 13:31:26;;;;;;;4.07;1.70;;;;;;;;;;5075969;28;20283;-53
2022/04/10 13:33:52;;;;;;;1.77;1.40;;;;;;;;;;5031793;28;20524;-57
2022/04/10 13:36:18;;;;;;;1.50;1.40;;;;;;;;;;5072230;28;20218;-54
2022/04/10 13:38:44;;;;;;;1.70;1.20;;;;;;;;;;5062338;28;20185;-54
2022/04/10 13:41:13;;;;;;;2.00;1.50;;;;;;;;;;5065895;28;20314;-53
2022/04/10 13:43:40;;;;;;;2.13;1.20;;;;;;;;;;5050007;28;20550;-55
2022/04/10 13:46:06;;;;;;;1.20;1.00;;;;;;;;;;5055334;28;20184;-52
2022/04/10 13:48:33;;;;;;;3.07;1.20;;;;;;;;;;5061235;28;20199;-54
2022/04/10 13:51:01;;;;;;;2.33;1.70;;;;;;;;;;5073788;28;20178;-54
2022/04/10 13:53:27;;;;;;;1.90;1.47;;;;;;;;;;5058420;28;20202;-55
2022/04/10 13:55:53;;;;;;;2.57;1.73;;;;;;;;;;5070728;28;20181;-54
2022/04/10 13:58:19;;;;;;;2.50;1.40;;;;;;;;;;5077266;28;20210;-55
2022/04/10 14:00:45;;;;;;;1.10;1.10;;;;;;;;;;5076100;28;20536;-54
2022/04/10 14:03:12;;;;;;;2.67;1.97;;;;;;;;;;5074651;28;20559;-54
2022/04/10 14:05:38;;;;;;;1.67;1.40;;;;;;;;;;5066298;28;20644;-54
2022/04/10 14:08:04;;;;;;;2.83;1.53;;;;;;;;;;5075586;28;20172;-53
2022/04/10 14:10:31;;;;;;;3.13;1.60;;;;;;;;;;5067303;28;20232;-56
2022/04/10 14:12:57;;;;;;;3.23;1.43;;;;;;;;;;5071971;28;20678;-53
2022/04/10 14:15:23;;;;;;;2.50;1.40;;;;;;;;;;5058927;28;20384;-54
2022/04/10 14:17:56;;;;;;;2.10;1.20;;;;;;;;;;5074623;28;20694;-53
2022/04/10 14:20:22;;;;;;;2.27;2.13;;;;;;;;;;5055315;28;20191;-53
2022/04/10 14:22:48;;;;;;;3.70;1.37;;;;;;;;;;5073517;28;20203;-56
2022/04/10 14:25:15;;;;;;;1.43;1.33;;;;;;;;;;5043667;28;20184;-54
2022/04/10 14:27:41;;;;;;;1.73;1.30;;;;;;;;;;5058898;28;20167;-53
2022/04/10 14:30:07;;;;;;;1.77;1.33;;;;;;;;;;5053261;28;20180;-52
2022/04/10 14:32:35;;;;;;;1.87;1.30;;;;;;;;;;5075651;28;20327;-53
2022/04/10 14:35:01;;;;;;;1.57;1.30;;;;;;;;;;5049649;28;20184;-53
2022/04/10 14:37:28;;;;;;;1.90;1.27;;;;;;;;;;5069135;28;20196;-53
2022/04/10 14:39:54;;;;;;;1.60;1.40;;;;;;;;;;5075283;28;20519;-54
2022/04/10 14:42:20;;;;;;;1.80;1.33;;;;;;;;;;5077936;28;20694;-54
2022/04/10 14:44:46;;;;;;;1.20;1.20;;;;;;;;;;5080381;28;20641;-53
2022/04/10 14:47:12;;;;;;;2.87;1.13;;;;;;;;;;5069706;28;20700;-53
2022/04/10 14:49:39;;;;;;;1.90;1.43;;;;;;;;;;5084895;28;20703;-51